Time;durP1;ratioP1;P1;durP2;ratioP2;P2;SDS_P1;SDS_P2;PMS_P1;PMS_P2;Temp;Humidity;BMP_temperature;BMP_pressure;BME280_temperature;BME280_humidity;BME280_pressure;Samples;Min_cycle;Max_cycle;Signal;HPM_P1;HPM_P2
2021/10/03 00:00:24;;;;;;;5.67;3.20;;;15.40;99.90;;;;;;4996466;28;20242;-62
2021/10/03 00:02:52;;;;;;;3.60;3.30;;;15.40;99.90;;;;;;4996062;28;20237;-62
2021/10/03 00:05:22;;;;;;;3.63;3.07;;;15.40;99.90;;;;;;4993701;28;20300;-62
2021/10/03 00:07:52;;;;;;;5.03;3.60;;;15.40;99.90;;;;;;4997685;28;20241;-62
2021/10/03 00:10:23;;;;;;;5.80;3.20;;;15.50;99.90;;;;;;4994870;28;20705;-62
2021/10/03 00:12:53;;;;;;;3.63;3.30;;;15.50;99.90;;;;;;4996160;28;20241;-62
2021/10/03 00:15:23;;;;;;;3.63;3.30;;;15.60;99.90;;;;;;4994787;28;20241;-62
2021/10/03 00:17:52;;;;;;;7.83;3.63;;;15.60;99.90;;;;;;4993301;28;20238;-61
2021/10/03 00:20:20;;;;;;;4.40;3.70;;;15.70;99.90;;;;;;4994977;28;20272;-61
2021/10/03 00:22:48;;;;;;;5.13;3.57;;;15.70;99.90;;;;;;4994411;28;20266;-62
2021/10/03 00:25:17;;;;;;;3.70;3.40;;;15.70;99.90;;;;;;4996032;28;20257;-62
2021/10/03 00:27:46;;;;;;;4.37;3.47;;;15.80;99.90;;;;;;4995630;28;20333;-61
2021/10/03 00:30:16;;;;;;;3.87;3.40;;;15.90;99.90;;;;;;4995274;28;20246;-62
2021/10/03 00:32:46;;;;;;;6.33;3.67;;;16.00;99.90;;;;;;4997084;28;20249;-62
2021/10/03 00:35:14;;;;;;;5.17;3.50;;;16.00;99.90;;;;;;4994271;28;20245;-63
2021/10/03 00:37:43;;;;;;;5.43;3.27;;;16.10;99.90;;;;;;4997049;28;20235;-61
2021/10/03 00:40:12;;;;;;;5.93;3.63;;;16.20;99.90;;;;;;4993943;28;20638;-62
2021/10/03 00:42:41;;;;;;;5.13;3.50;;;16.30;99.90;;;;;;4989796;28;20319;-62
2021/10/03 00:45:13;;;;;;;4.47;3.77;;;16.40;99.90;;;;;;4995830;28;20233;-62
2021/10/03 00:47:41;;;;;;;5.63;3.60;;;16.50;99.90;;;;;;4992451;28;20489;-61
2021/10/03 00:50:14;;;;;;;4.93;3.60;;;16.50;99.90;;;;;;4999771;28;20260;-62
2021/10/03 00:52:44;;;;;;;5.80;3.60;;;16.60;99.90;;;;;;4982354;28;20333;-61
2021/10/03 00:55:13;;;;;;;5.87;3.60;;;16.70;99.90;;;;;;4994140;28;20768;-61
2021/10/03 00:57:42;;;;;;;4.30;3.70;;;16.70;99.90;;;;;;4990783;28;20699;-61
2021/10/03 01:00:13;;;;;;;4.47;3.40;;;16.70;99.90;;;;;;4994345;28;20606;-62
2021/10/03 01:02:42;;;;;;;4.80;3.47;;;16.70;99.90;;;;;;4989390;28;20293;-62
2021/10/03 01:05:12;;;;;;;4.03;3.37;;;16.60;99.90;;;;;;4992271;28;20308;-63
2021/10/03 01:07:40;;;;;;;4.77;3.77;;;16.50;99.90;;;;;;4993360;28;20244;-63
2021/10/03 01:10:12;;;;;;;5.97;3.60;;;16.50;99.90;;;;;;4992945;28;20277;-63
2021/10/03 01:12:40;;;;;;;5.83;3.87;;;16.50;99.90;;;;;;4996595;28;20265;-62
2021/10/03 01:15:10;;;;;;;4.83;3.60;;;16.50;99.90;;;;;;4995116;28;20243;-63
2021/10/03 01:17:38;;;;;;;3.87;3.53;;;16.60;99.90;;;;;;4995353;28;20600;-62
2021/10/03 01:20:08;;;;;;;4.50;4.10;;;16.50;99.90;;;;;;4996285;28;20245;-63
2021/10/03 01:22:39;;;;;;;6.33;3.80;;;16.50;99.90;;;;;;4989202;28;20671;-61
2021/10/03 01:25:08;;;;;;;4.17;3.70;;;16.50;99.90;;;;;;4991031;28;20233;-62
2021/10/03 01:27:37;;;;;;;4.00;3.60;;;16.60;99.90;;;;;;4993111;28;20231;-63
2021/10/03 01:30:08;;;;;;;5.17;3.80;;;16.70;99.90;;;;;;4992761;28;20664;-62
2021/10/03 01:32:36;;;;;;;5.47;3.60;;;16.70;99.90;;;;;;4985306;28;20693;-61
2021/10/03 01:35:05;;;;;;;4.23;3.80;;;16.80;99.90;;;;;;4988109;28;20796;-62
2021/10/03 01:37:34;;;;;;;4.00;3.60;;;16.80;99.90;;;;;;4992251;28;20710;-63
2021/10/03 01:40:07;;;;;;;5.27;3.73;;;17.00;99.90;;;;;;4993815;28;20231;-62
2021/10/03 01:42:36;;;;;;;4.10;3.70;;;16.90;99.90;;;;;;4989822;28;20646;-62
2021/10/03 01:45:07;;;;;;;4.23;3.80;;;16.80;99.90;;;;;;4997461;28;20229;-63
2021/10/03 01:47:35;;;;;;;4.27;3.87;;;16.70;99.90;;;;;;4991577;28;20242;-63
2021/10/03 01:50:04;;;;;;;5.97;4.00;;;16.60;99.90;;;;;;4992494;28;20243;-62
2021/10/03 01:52:34;;;;;;;7.30;4.13;;;16.60;99.90;;;;;;4997383;28;20245;-62
2021/10/03 01:55:04;;;;;;;6.37;3.87;;;16.60;99.90;;;;;;4994588;28;20231;-63
2021/10/03 01:57:33;;;;;;;5.23;3.87;;;16.60;99.90;;;;;;4983837;28;20237;-62
2021/10/03 02:00:01;;;;;;;4.17;3.70;;;16.60;99.90;;;;;;4991307;28;20242;-63
2021/10/03 02:02:45;;;;;;;5.50;4.20;;;16.70;99.90;;;;;;4937576;29;20245;-63
2021/10/03 02:05:13;;;;;;;4.67;4.17;;;16.80;99.90;;;;;;4938671;28;20243;-62
2021/10/03 02:07:41;;;;;;;4.40;3.87;;;16.90;99.90;;;;;;4937677;28;20331;-63
2021/10/03 02:10:11;;;;;;;5.63;4.00;;;16.90;99.90;;;;;;4936348;28;20389;-62
2021/10/03 02:12:39;;;;;;;4.40;3.73;;;17.00;99.90;;;;;;4933092;28;20244;-63
2021/10/03 02:15:08;;;;;;;6.27;3.90;;;17.00;99.90;;;;;;4929458;28;20822;-62
2021/10/03 02:17:36;;;;;;;4.17;3.40;;;17.10;99.90;;;;;;4932137;28;20240;-63
2021/10/03 02:20:06;;;;;;;6.40;3.60;;;17.10;99.90;;;;;;4934943;28;20258;-63
2021/10/03 02:22:34;;;;;;;4.00;3.60;;;17.10;99.90;;;;;;4933361;28;20365;-63
2021/10/03 02:25:02;;;;;;;5.67;4.07;;;17.10;99.90;;;;;;4936168;28;20237;-62
2021/10/03 02:27:33;;;;;;;5.13;3.63;;;17.10;99.90;;;;;;4929953;28;20236;-62
2021/10/03 02:30:02;;;;;;;4.60;3.70;;;17.10;99.90;;;;;;4939304;29;20323;-62
2021/10/03 02:32:33;;;;;;;4.77;3.97;;;17.10;99.90;;;;;;4931569;28;20329;-63
2021/10/03 02:35:03;;;;;;;5.03;4.40;;;17.00;99.90;;;;;;4996588;28;20261;-62
2021/10/03 02:37:31;;;;;;;3.80;3.50;;;16.90;99.90;;;;;;4993846;28;20317;-62
2021/10/03 02:39:59;;;;;;;4.13;3.70;;;16.80;99.90;;;;;;4995623;28;20265;-63
2021/10/03 02:42:28;;;;;;;5.87;4.23;;;16.80;99.90;;;;;;4987091;28;20230;-62
2021/10/03 02:44:57;;;;;;;4.33;3.90;;;16.80;99.90;;;;;;4992865;28;20728;-62
2021/10/03 02:47:25;;;;;;;6.27;3.97;;;16.80;99.90;;;;;;4988604;28;20285;-63
2021/10/03 02:49:53;;;;;;;4.47;4.07;;;16.80;99.90;;;;;;4995554;28;20241;-63
2021/10/03 02:52:21;;;;;;;4.40;3.93;;;16.90;99.90;;;;;;4992064;28;20247;-63
2021/10/03 02:54:50;;;;;;;4.23;3.83;;;16.90;99.90;;;;;;4993098;28;20239;-63
2021/10/03 02:57:18;;;;;;;4.97;4.10;;;16.90;99.90;;;;;;4989767;28;20338;-62
2021/10/03 02:59:46;;;;;;;6.00;3.70;;;16.90;99.90;;;;;;4992225;28;20249;-62
2021/10/03 03:02:16;;;;;;;6.53;3.70;;;16.90;99.90;;;;;;4989684;28;20244;-62
2021/10/03 03:04:44;;;;;;;4.07;3.67;;;17.00;99.90;;;;;;4985367;28;20274;-62
2021/10/03 03:07:12;;;;;;;4.47;3.70;;;17.00;99.90;;;;;;4994633;28;20248;-62
2021/10/03 03:09:40;;;;;;;4.90;3.70;;;17.00;99.90;;;;;;4989327;28;20257;-62
2021/10/03 03:12:08;;;;;;;4.17;3.77;;;17.10;99.90;;;;;;4990960;28;20266;-62
2021/10/03 03:14:36;;;;;;;5.07;3.57;;;17.10;99.90;;;;;;4984466;28;20257;-61
2021/10/03 03:17:16;;;;;;;4.00;3.60;;;17.10;99.90;;;;;;4993430;28;20230;-63
2021/10/03 03:19:45;;;;;;;3.87;3.43;;;17.10;99.90;;;;;;4994545;28;20670;-61
2021/10/03 03:22:14;;;;;;;5.43;3.50;;;17.10;99.90;;;;;;5000935;28;20242;-62
2021/10/03 03:24:43;;;;;;;4.57;3.57;;;17.20;99.90;;;;;;4992907;28;20257;-62
2021/10/03 03:27:13;;;;;;;4.30;3.80;;;17.20;99.90;;;;;;5000154;28;20248;-61
2021/10/03 03:29:42;;;;;;;4.20;3.33;;;17.30;99.90;;;;;;5001129;28;20273;-63
2021/10/03 03:32:10;;;;;;;3.70;3.40;;;17.30;99.90;;;;;;5003882;28;20238;-63
2021/10/03 03:34:40;;;;;;;3.80;3.50;;;17.40;99.90;;;;;;4997595;28;20230;-62
2021/10/03 03:37:08;;;;;;;4.03;3.20;;;17.50;99.90;;;;;;4996590;28;20245;-62
2021/10/03 03:39:36;;;;;;;6.00;3.20;;;17.50;99.90;;;;;;4995542;28;20245;-62
2021/10/03 03:42:05;;;;;;;3.50;3.20;;;17.50;99.90;;;;;;4999739;28;20816;-63
2021/10/03 03:44:33;;;;;;;4.10;3.70;;;17.50;99.90;;;;;;4995647;28;20237;-62
2021/10/03 03:47:01;;;;;;;3.80;3.50;;;17.60;99.90;;;;;;4990213;28;20321;-62
2021/10/03 03:49:30;;;;;;;4.30;3.63;;;17.60;99.90;;;;;;4984020;28;20318;-62
2021/10/03 03:51:59;;;;;;;5.53;3.10;;;17.60;99.90;;;;;;4996093;28;20639;-62
2021/10/03 03:54:27;;;;;;;5.57;3.10;;;17.70;99.90;;;;;;4993343;28;20238;-62
2021/10/03 03:56:55;;;;;;;3.53;3.23;;;17.80;99.90;;;;;;4995301;28;20237;-63
2021/10/03 03:59:25;;;;;;;4.40;3.60;;;17.80;99.90;;;;;;4996763;28;20262;-62
2021/10/03 04:01:53;;;;;;;10.97;3.20;;;17.80;99.90;;;;;;5000523;28;20240;-62
2021/10/03 04:04:22;;;;;;;4.37;2.93;;;17.80;99.90;;;;;;4989341;28;20248;-62
2021/10/03 04:06:50;;;;;;;5.57;3.37;;;17.90;99.90;;;;;;5000246;28;20239;-62
2021/10/03 04:09:19;;;;;;;4.30;3.20;;;17.90;99.90;;;;;;4997648;28;20259;-62
2021/10/03 04:11:47;;;;;;;5.40;2.90;;;18.00;99.90;;;;;;4999373;28;20239;-63
2021/10/03 04:14:15;;;;;;;4.40;3.13;;;18.00;99.90;;;;;;4994833;28;20273;-62
2021/10/03 04:16:43;;;;;;;4.33;3.23;;;18.00;99.90;;;;;;4991201;28;20241;-62
2021/10/03 04:19:12;;;;;;;3.50;3.20;;;18.00;99.90;;;;;;4993521;28;20238;-63
2021/10/03 04:21:40;;;;;;;3.67;3.30;;;18.00;99.90;;;;;;4995073;28;20238;-62
2021/10/03 04:24:08;;;;;;;4.20;3.23;;;18.00;99.90;;;;;;4994682;28;20327;-62
2021/10/03 04:26:38;;;;;;;4.03;3.17;;;18.00;99.90;;;;;;5001849;28;20324;-63
2021/10/03 04:29:06;;;;;;;4.40;3.40;;;18.00;99.90;;;;;;5002037;28;20235;-63
2021/10/03 04:31:34;;;;;;;3.80;3.23;;;18.00;99.90;;;;;;4993546;28;20229;-63
2021/10/03 04:34:02;;;;;;;3.30;3.00;;;18.00;99.90;;;;;;4998465;28;20262;-62
2021/10/03 04:36:30;;;;;;;3.50;3.10;;;18.00;99.90;;;;;;4995317;28;20725;-61
2021/10/03 04:38:58;;;;;;;4.00;3.57;;;18.00;99.90;;;;;;4991362;28;20565;-62
2021/10/03 04:41:26;;;;;;;4.60;3.13;;;18.00;99.90;;;;;;4996952;28;20729;-62
2021/10/03 04:43:56;;;;;;;4.63;3.40;;;18.00;99.90;;;;;;4990418;28;20331;-63
2021/10/03 04:46:24;;;;;;;3.40;3.10;;;18.00;99.90;;;;;;4993640;28;20663;-62
2021/10/03 04:48:52;;;;;;;3.97;3.40;;;18.00;99.90;;;;;;4987160;28;20235;-64
2021/10/03 04:51:20;;;;;;;3.70;3.40;;;17.90;99.90;;;;;;4990182;28;20606;-63
2021/10/03 04:53:48;;;;;;;4.43;3.70;;;17.90;99.90;;;;;;4995763;28;20646;-62
2021/10/03 04:56:17;;;;;;;5.37;3.10;;;17.70;99.90;;;;;;4992846;28;20244;-62
2021/10/03 04:58:45;;;;;;;3.83;3.53;;;17.60;99.90;;;;;;4993192;28;20281;-63
2021/10/03 05:01:15;;;;;;;4.87;3.60;;;17.60;99.90;;;;;;4993894;28;20606;-63
2021/10/03 05:03:43;;;;;;;3.70;3.40;;;17.60;99.90;;;;;;4989769;28;20239;-63
2021/10/03 05:06:12;;;;;;;4.40;3.70;;;17.70;99.90;;;;;;4985495;28;20319;-61
2021/10/03 05:08:40;;;;;;;4.03;3.40;;;17.70;99.90;;;;;;4988748;28;20244;-63
2021/10/03 05:11:08;;;;;;;3.70;3.40;;;17.80;99.90;;;;;;4983382;28;20335;-63
2021/10/03 05:13:36;;;;;;;5.00;3.40;;;17.80;99.90;;;;;;4997531;28;21135;-62
2021/10/03 05:16:05;;;;;;;3.67;3.37;;;17.90;99.90;;;;;;4997007;28;20243;-63
2021/10/03 05:18:36;;;;;;;4.07;3.33;;;17.90;99.90;;;;;;4989726;28;20265;-61
2021/10/03 05:21:05;;;;;;;3.63;3.17;;;17.90;99.90;;;;;;4987290;28;20243;-62
2021/10/03 05:23:34;;;;;;;4.17;3.50;;;17.90;99.90;;;;;;4983167;28;20231;-63
2021/10/03 05:26:02;;;;;;;3.67;3.37;;;17.90;99.90;;;;;;4993107;28;20270;-63
2021/10/03 05:28:30;;;;;;;3.83;3.10;;;18.00;99.90;;;;;;4994467;28;20240;-62
2021/10/03 05:30:58;;;;;;;5.80;3.57;;;17.90;99.90;;;;;;4992988;28;20294;-62
2021/10/03 05:33:26;;;;;;;5.67;3.67;;;17.90;99.90;;;;;;4991176;28;20222;-62
2021/10/03 05:35:56;;;;;;;4.27;3.40;;;17.80;99.90;;;;;;4994814;28;20244;-62
2021/10/03 05:38:24;;;;;;;3.93;3.10;;;17.80;99.90;;;;;;4987627;28;20242;-63
2021/10/03 05:40:52;;;;;;;3.73;3.40;;;17.70;99.90;;;;;;4996133;28;20235;-63
2021/10/03 05:43:20;;;;;;;4.27;3.30;;;17.60;99.90;;;;;;4984418;28;20739;-62
2021/10/03 05:45:49;;;;;;;3.80;3.30;;;17.60;99.90;;;;;;4986105;28;20246;-63
2021/10/03 05:48:18;;;;;;;3.97;3.57;;;17.50;99.90;;;;;;4985368;28;20249;-63
2021/10/03 05:50:47;;;;;;;4.07;3.53;;;17.40;99.90;;;;;;4983372;28;20244;-63
2021/10/03 05:53:16;;;;;;;5.10;3.70;;;17.30;99.90;;;;;;4984042;28;20255;-62
2021/10/03 05:55:44;;;;;;;4.43;3.43;;;17.30;99.90;;;;;;4987837;28;20329;-62
2021/10/03 05:58:12;;;;;;;4.53;3.67;;;17.30;99.90;;;;;;4982979;28;20323;-62
2021/10/03 06:00:40;;;;;;;4.43;3.60;;;17.30;99.90;;;;;;4980558;28;20238;-62
2021/10/03 06:03:09;;;;;;;5.53;3.40;;;17.30;99.90;;;;;;4985659;28;20297;-62
2021/10/03 06:05:37;;;;;;;6.03;3.50;;;17.20;99.90;;;;;;4984845;28;20709;-62
2021/10/03 06:08:05;;;;;;;4.43;3.40;;;17.20;99.90;;;;;;4983331;28;20228;-62
2021/10/03 06:10:35;;;;;;;3.80;3.40;;;17.20;99.90;;;;;;4981006;28;20248;-63
2021/10/03 06:13:04;;;;;;;4.13;3.43;;;17.20;99.90;;;;;;4995926;28;20604;-61
2021/10/03 06:15:39;;;;;;;3.53;3.23;;;17.20;99.90;;;;;;4984050;28;20275;-63
2021/10/03 06:18:07;;;;;;;3.03;2.73;;;17.20;99.90;;;;;;4985205;28;20237;-63
2021/10/03 06:20:35;;;;;;;4.50;3.80;;;17.20;99.90;;;;;;4980886;28;20717;-63
2021/10/03 06:23:03;;;;;;;5.70;3.60;;;17.20;99.90;;;;;;4995334;28;20242;-62
2021/10/03 06:25:32;;;;;;;4.83;3.33;;;17.20;99.90;;;;;;4986631;28;20270;-63
2021/10/03 06:28:02;;;;;;;4.27;3.63;;;17.20;99.90;;;;;;4987902;28;20818;-62
2021/10/03 06:30:30;;;;;;;5.63;3.40;;;17.30;99.90;;;;;;4987420;28;20269;-62
2021/10/03 06:33:00;;;;;;;4.40;3.47;;;17.30;99.90;;;;;;4986422;28;20227;-62
2021/10/03 06:35:29;;;;;;;3.87;3.47;;;17.30;99.90;;;;;;4983819;28;20594;-63
2021/10/03 06:37:57;;;;;;;5.93;3.57;;;17.30;99.90;;;;;;4987710;28;20227;-61
2021/10/03 06:40:26;;;;;;;4.97;3.60;;;17.30;99.90;;;;;;4982212;28;20242;-61
2021/10/03 06:42:55;;;;;;;4.27;3.87;;;17.30;99.90;;;;;;4981799;28;20239;-62
2021/10/03 06:45:24;;;;;;;4.27;3.63;;;17.40;99.90;;;;;;4984279;28;20271;-62
2021/10/03 06:47:52;;;;;;;4.67;3.53;;;17.40;99.90;;;;;;4982159;28;20243;-62
2021/10/03 06:50:21;;;;;;;4.37;3.67;;;17.50;99.90;;;;;;4985857;28;20237;-61
2021/10/03 06:52:49;;;;;;;5.70;3.87;;;17.50;99.90;;;;;;4984518;28;20317;-61
2021/10/03 06:55:19;;;;;;;4.53;3.80;;;17.60;99.90;;;;;;4989157;28;20726;-62
2021/10/03 06:57:47;;;;;;;6.17;3.40;;;17.70;99.90;;;;;;4986843;28;20235;-62
2021/10/03 07:00:15;;;;;;;4.27;3.37;;;17.80;99.90;;;;;;4985566;28;20247;-62
2021/10/03 07:02:48;;;;;;;4.70;3.60;;;17.80;99.90;;;;;;4987583;28;20773;-62
2021/10/03 07:05:17;;;;;;;4.23;3.83;;;17.90;99.90;;;;;;4979755;28;20267;-63
2021/10/03 07:07:45;;;;;;;4.87;4.37;;;17.80;99.90;;;;;;4984329;28;20295;-62
2021/10/03 07:10:13;;;;;;;5.13;4.00;;;17.80;99.90;;;;;;4984015;28;20243;-63
2021/10/03 07:12:42;;;;;;;5.43;4.20;;;17.80;99.90;;;;;;4982166;28;20263;-62
2021/10/03 07:15:10;;;;;;;6.30;4.50;;;17.80;99.90;;;;;;4985495;28;20258;-63
2021/10/03 07:17:38;;;;;;;6.07;4.37;;;17.90;99.90;;;;;;4984577;28;20255;-63
2021/10/03 07:20:09;;;;;;;5.30;4.10;;;18.00;99.90;;;;;;4984824;28;20247;-62
2021/10/03 07:22:37;;;;;;;4.93;3.83;;;18.10;99.90;;;;;;4983252;28;20849;-63
2021/10/03 07:25:07;;;;;;;4.63;4.13;;;18.10;99.90;;;;;;4985113;28;20912;-62
2021/10/03 07:27:35;;;;;;;4.87;4.40;;;18.20;99.90;;;;;;4984920;28;21197;-64
2021/10/03 07:30:05;;;;;;;4.77;4.27;;;18.20;99.90;;;;;;4984333;28;20244;-63
2021/10/03 07:32:33;;;;;;;4.77;4.13;;;18.30;99.90;;;;;;4982555;28;20234;-63
2021/10/03 07:35:02;;;;;;;4.63;3.90;;;18.30;99.90;;;;;;4985214;28;20698;-62
2021/10/03 07:37:31;;;;;;;5.00;4.30;;;18.40;99.90;;;;;;4984661;28;20247;-63
2021/10/03 07:40:01;;;;;;;5.80;4.17;;;18.40;99.90;;;;;;4978943;28;20238;-63
2021/10/03 07:42:29;;;;;;;5.93;4.27;;;18.40;99.90;;;;;;4987627;28;20761;-62
2021/10/03 07:44:58;;;;;;;7.63;4.93;;;18.50;99.90;;;;;;4981810;28;20711;-63
2021/10/03 07:47:26;;;;;;;5.60;4.60;;;18.50;99.90;;;;;;4986863;28;20241;-62
2021/10/03 07:49:54;;;;;;;4.63;4.17;;;18.50;99.90;;;;;;4985265;28;20250;-62
2021/10/03 07:52:23;;;;;;;7.33;4.57;;;18.60;99.90;;;;;;4987030;28;20691;-63
2021/10/03 07:54:54;;;;;;;8.43;4.30;;;18.60;99.90;;;;;;4987094;28;20234;-63
2021/10/03 07:57:23;;;;;;;5.77;4.50;;;18.70;99.90;;;;;;4981334;28;20343;-62
2021/10/03 07:59:51;;;;;;;5.87;4.67;;;18.70;99.90;;;;;;4980447;28;20239;-64
2021/10/03 08:02:19;;;;;;;5.73;4.67;;;18.70;99.90;;;;;;4983568;28;20342;-65
2021/10/03 08:04:47;;;;;;;5.00;4.60;;;18.70;99.90;;;;;;4986516;28;20247;-64
2021/10/03 08:07:15;;;;;;;5.70;5.13;;;18.70;99.90;;;;;;4987790;28;20257;-63
2021/10/03 08:09:44;;;;;;;7.50;5.17;;;18.80;99.90;;;;;;4987707;28;20249;-64
2021/10/03 08:12:14;;;;;;;5.67;5.03;;;18.80;99.90;;;;;;4987567;28;20625;-62
2021/10/03 08:14:46;;;;;;;5.67;5.07;;;18.90;99.90;;;;;;4987685;28;20250;-62
2021/10/03 08:17:15;;;;;;;5.90;5.03;;;18.80;99.90;;;;;;4988369;28;20256;-64
2021/10/03 08:19:43;;;;;;;5.37;4.87;;;18.90;99.90;;;;;;4986657;28;20248;-64
2021/10/03 08:22:11;;;;;;;5.20;4.70;;;18.90;99.90;;;;;;4987510;28;20242;-63
2021/10/03 08:24:40;;;;;;;5.27;4.77;;;18.90;99.90;;;;;;4986946;28;20683;-63
2021/10/03 08:27:09;;;;;;;5.67;4.97;;;19.00;99.90;;;;;;4986446;28;20243;-63
2021/10/03 08:29:38;;;;;;;7.57;5.37;;;19.00;99.90;;;;;;4986510;28;20975;-63
2021/10/03 08:32:07;;;;;;;4.80;4.37;;;19.10;99.90;;;;;;4979175;28;20265;-64
2021/10/03 08:34:35;;;;;;;5.07;4.53;;;19.10;99.90;;;;;;4990229;28;20260;-63
2021/10/03 08:37:04;;;;;;;5.07;4.57;;;19.00;99.90;;;;;;4988612;28;20658;-63
2021/10/03 08:39:32;;;;;;;5.27;4.50;;;19.00;99.90;;;;;;4993830;28;20241;-62
2021/10/03 08:42:02;;;;;;;5.73;4.63;;;19.00;99.90;;;;;;4991000;28;20245;-62
2021/10/03 08:44:31;;;;;;;5.30;4.80;;;19.00;99.90;;;;;;4996859;28;20259;-63
2021/10/03 08:47:01;;;;;;;5.43;4.70;;;19.00;99.90;;;;;;4984332;28;20246;-62
2021/10/03 08:49:31;;;;;;;6.63;4.53;;;19.00;99.90;;;;;;4971808;28;20760;-62
2021/10/03 08:52:00;;;;;;;6.00;4.70;;;19.00;99.90;;;;;;4982473;28;20228;-63
2021/10/03 08:54:28;;;;;;;5.00;4.50;;;19.00;99.90;;;;;;4986913;28;20237;-63
2021/10/03 08:56:56;;;;;;;6.00;4.60;;;19.00;99.90;;;;;;4983970;28;20229;-62
2021/10/03 08:59:25;;;;;;;6.47;4.97;;;18.90;99.90;;;;;;4986579;28;20237;-62
2021/10/03 09:01:55;;;;;;;4.93;4.50;;;18.70;99.90;;;;;;4986905;28;20588;-64
2021/10/03 09:04:30;;;;;;;5.83;5.23;;;18.70;99.90;;;;;;4982731;28;20251;-63
2021/10/03 09:07:07;;;;;;;5.90;4.70;;;18.80;99.90;;;;;;4983066;28;20249;-64
2021/10/03 09:09:52;;;;;;;6.10;4.60;;;18.80;99.90;;;;;;4985003;28;20247;-63
2021/10/03 09:12:29;;;;;;;6.03;4.90;;;18.80;99.90;;;;;;4980230;28;20248;-62
2021/10/03 09:14:58;;;;;;;5.03;4.60;;;18.80;99.90;;;;;;4984771;28;20233;-63
2021/10/03 09:17:30;;;;;;;6.63;5.20;;;18.70;99.90;;;;;;4984364;28;20326;-62
2021/10/03 09:20:15;;;;;;;5.93;4.70;;;18.60;99.90;;;;;;4987675;28;20228;-63
2021/10/03 09:23:05;;;;;;;5.03;4.50;;;18.60;99.90;;;;;;4986854;28;20885;-63
2021/10/03 09:25:35;;;;;;;5.67;5.13;;;18.50;99.90;;;;;;4988026;28;20266;-63
2021/10/03 09:28:05;;;;;;;4.90;4.40;;;18.50;99.90;;;;;;4983245;28;20261;-63
2021/10/03 09:30:35;;;;;;;5.60;5.00;;;18.50;99.90;;;;;;4982676;28;20240;-64
2021/10/03 09:33:04;;;;;;;5.80;5.10;;;18.50;99.90;;;;;;4986897;28;20496;-63
2021/10/03 09:35:34;;;;;;;7.23;4.93;;;18.60;99.90;;;;;;4986095;28;20240;-62
2021/10/03 09:38:09;;;;;;;5.40;4.87;;;18.70;99.90;;;;;;4985165;28;20323;-62
2021/10/03 09:40:38;;;;;;;6.30;4.53;;;18.90;99.90;;;;;;4984547;28;20524;-62
2021/10/03 09:43:06;;;;;;;5.87;5.20;;;18.90;99.90;;;;;;4984937;28;20232;-62
2021/10/03 09:45:34;;;;;;;4.90;4.50;;;18.90;99.90;;;;;;4988627;28;20233;-62
2021/10/03 09:48:04;;;;;;;5.27;4.60;;;18.80;99.90;;;;;;4986225;28;20702;-62
2021/10/03 09:50:37;;;;;;;5.50;5.00;;;18.80;99.90;;;;;;4985490;28;20243;-64
2021/10/03 09:53:06;;;;;;;5.37;4.57;;;18.90;99.90;;;;;;4989890;28;20234;-63
2021/10/03 09:55:34;;;;;;;5.63;4.70;;;19.00;99.90;;;;;;4986696;28;20537;-62
2021/10/03 09:58:02;;;;;;;5.53;4.60;;;19.00;99.90;;;;;;4989240;28;20248;-62
2021/10/03 10:00:30;;;;;;;5.03;4.57;;;18.90;99.90;;;;;;4984752;28;20240;-63
2021/10/03 10:02:59;;;;;;;4.63;4.17;;;18.80;99.90;;;;;;4981903;28;20602;-63
2021/10/03 10:05:28;;;;;;;5.77;4.43;;;18.80;99.90;;;;;;4990012;28;20325;-63
2021/10/03 10:08:17;;;;;;;4.20;3.85;;;18.90;99.90;;;;;;1979838;28;10003987;-63
2021/10/03 10:10:46;;;;;;;5.30;4.23;;;18.90;99.90;;;;;;4644593;28;10001529;-63
2021/10/03 10:13:17;;;;;;;6.53;5.00;;;18.80;99.90;;;;;;4987479;28;20243;-64
2021/10/03 10:15:46;;;;;;;6.07;4.40;;;18.60;99.90;;;;;;4975451;28;20658;-63
2021/10/03 10:18:25;;;;;;;5.07;4.57;;;18.60;99.90;;;;;;4983496;28;20240;-63
2021/10/03 10:20:54;;;;;;;4.83;4.37;;;18.80;99.90;;;;;;4989499;28;20243;-63
2021/10/03 10:23:30;;;;;;;5.27;4.27;;;18.80;99.90;;;;;;4989562;28;20236;-62
2021/10/03 10:26:00;;;;;;;4.90;4.40;;;19.00;99.90;;;;;;4991942;28;20275;-62
2021/10/03 10:28:37;;;;;;;4.77;4.33;;;19.00;99.90;;;;;;4980281;28;20242;-63
2021/10/03 10:31:11;;;;;;;4.87;4.40;;;19.00;99.90;;;;;;4991383;28;20656;-62
2021/10/03 10:34:08;;;;;;;5.17;4.67;;;19.00;99.90;;;;;;4991851;28;20232;-63
2021/10/03 10:36:53;;;;;;;5.40;4.50;;;18.90;99.90;;;;;;4981995;28;20236;-62
2021/10/03 10:39:28;;;;;;;6.20;4.27;;;18.80;99.90;;;;;;4992205;28;20327;-62
2021/10/03 10:42:02;;;;;;;5.40;4.63;;;18.70;99.90;;;;;;4995651;28;20239;-62
2021/10/03 10:44:33;;;;;;;4.93;4.43;;;18.70;99.90;;;;;;4983863;28;20327;-62
2021/10/03 10:47:07;;;;;;;4.93;4.30;;;18.70;99.90;;;;;;4992489;28;20239;-63
2021/10/03 10:49:41;;;;;;;5.27;4.30;;;18.70;99.90;;;;;;4984927;28;20236;-63
2021/10/03 10:52:36;;;;;;;5.40;4.77;;;18.70;99.90;;;;;;4993968;28;20331;-63
2021/10/03 10:55:28;;;;;;;4.90;4.43;;;18.70;99.90;;;;;;4987461;28;20319;-64
2021/10/03 10:58:20;;;;;;;5.57;4.30;;;18.80;99.90;;;;;;4992405;28;20591;-63
2021/10/03 11:01:11;;;;;;;5.07;4.00;;;18.90;99.90;;;;;;4992817;28;20795;-63
2021/10/03 11:04:23;;;;;;;5.37;4.30;;;18.90;99.90;;;;;;4985089;28;20724;-62
2021/10/03 11:06:54;;;;;;;4.53;4.10;;;19.00;99.90;;;;;;4984529;28;20240;-64
2021/10/03 11:09:22;;;;;;;5.47;3.87;;;19.20;99.90;;;;;;4989405;28;20235;-62
2021/10/03 11:12:01;;;;;;;4.40;3.80;;;19.40;99.90;;;;;;4987394;28;20767;-64
2021/10/03 11:14:30;;;;;;;6.17;3.97;;;19.70;99.90;;;;;;4992902;28;20240;-63
2021/10/03 11:17:04;;;;;;;5.00;4.07;;;20.10;99.90;;;;;;4993706;28;20240;-64
2021/10/03 11:19:38;;;;;;;4.27;3.50;;;20.30;99.90;;;;;;4982881;28;20316;-63
2021/10/03 11:22:09;;;;;;;4.00;3.70;;;20.30;99.90;;;;;;4991655;28;20456;-63
2021/10/03 11:24:39;;;;;;;4.93;3.80;;;20.40;99.90;;;;;;4989702;28;20234;-63
2021/10/03 11:27:10;;;;;;;6.33;4.03;;;20.40;99.90;;;;;;4992984;28;20239;-64
2021/10/03 11:29:39;;;;;;;4.43;3.80;;;20.30;99.90;;;;;;4985986;28;20259;-63
2021/10/03 11:32:09;;;;;;;4.90;3.87;;;20.40;99.90;;;;;;4989412;28;20240;-63
2021/10/03 11:34:40;;;;;;;3.87;3.47;;;20.50;99.90;;;;;;4990235;28;20331;-63
2021/10/03 11:37:12;;;;;;;3.97;3.60;;;20.50;99.90;;;;;;4987809;28;20834;-62
2021/10/03 11:39:43;;;;;;;4.13;3.80;;;20.40;99.90;;;;;;4989776;28;20303;-64
2021/10/03 11:42:15;;;;;;;4.07;3.67;;;20.50;99.90;;;;;;4996985;28;20241;-63
2021/10/03 11:44:44;;;;;;;3.90;3.50;;;20.60;99.90;;;;;;4991801;28;20237;-65
2021/10/03 11:47:14;;;;;;;3.87;3.43;;;20.60;99.90;;;;;;4972625;28;20245;-63
2021/10/03 11:49:44;;;;;;;5.00;3.80;;;20.70;99.90;;;;;;4989651;28;20291;-63
2021/10/03 11:52:27;;;;;;;4.10;3.70;;;20.80;99.90;;;;;;4995980;28;20532;-65
2021/10/03 11:55:02;;;;;;;4.70;3.90;;;20.80;99.90;;;;;;4997532;28;20248;-63
2021/10/03 11:57:38;;;;;;;4.10;3.60;;;20.80;99.90;;;;;;4990020;28;20264;-63
2021/10/03 12:00:10;;;;;;;4.10;3.57;;;20.90;99.90;;;;;;4993709;28;20645;-64
2021/10/03 12:02:44;;;;;;;4.30;3.53;;;21.10;99.90;;;;;;4989397;28;20241;-62
2021/10/03 12:05:17;;;;;;;6.47;4.00;;;21.10;99.90;;;;;;5000945;28;20295;-63
2021/10/03 12:07:45;;;;;;;5.33;4.03;;;21.10;99.90;;;;;;4996455;28;20603;-63
2021/10/03 12:10:15;;;;;;;4.03;3.60;;;21.00;99.90;;;;;;4992355;28;20261;-63
2021/10/03 12:12:51;;;;;;;3.73;3.23;;;20.90;99.90;;;;;;4990078;28;20269;-63
2021/10/03 12:15:39;;;;;;;4.27;3.70;;;20.80;99.90;;;;;;4988117;28;20692;-64
2021/10/03 12:18:09;;;;;;;5.60;3.30;;;20.60;99.90;;;;;;4988632;28;20753;-64
2021/10/03 12:20:55;;;;;;;4.63;3.63;;;20.60;99.90;;;;;;4987910;28;20233;-63
2021/10/03 12:23:40;;;;;;;4.17;3.33;;;20.60;99.90;;;;;;4985977;28;20246;-62
2021/10/03 12:26:14;;;;;;;6.67;4.27;;;20.70;99.90;;;;;;4984513;28;20252;-64
2021/10/03 12:29:01;;;;;;;4.83;3.47;;;20.70;99.90;;;;;;4985375;28;20269;-63
2021/10/03 12:31:44;;;;;;;6.93;4.43;;;20.80;99.90;;;;;;4988034;28;20636;-64
2021/10/03 12:34:35;;;;;;;4.97;3.60;;;20.80;99.90;;;;;;4984968;28;20593;-63
2021/10/03 12:37:25;;;;;;;3.93;3.30;;;20.90;99.90;;;;;;4984724;28;20241;-62
2021/10/03 12:39:56;;;;;;;4.17;3.50;;;20.90;99.90;;;;;;4989797;28;20295;-63
2021/10/03 12:42:26;;;;;;;4.27;3.53;;;21.00;99.90;;;;;;4986809;28;20729;-64
2021/10/03 12:44:58;;;;;;;4.73;3.20;;;21.00;99.90;;;;;;4989343;28;20324;-64
2021/10/03 12:47:27;;;;;;;3.07;2.87;;;21.00;99.90;;;;;;4988337;28;20259;-63
2021/10/03 12:49:55;;;;;;;5.20;3.70;;;20.80;99.90;;;;;;4989596;28;20238;-65
2021/10/03 12:52:24;;;;;;;3.83;3.43;;;20.80;99.90;;;;;;4987781;28;20289;-62
2021/10/03 12:54:52;;;;;;;4.23;3.50;;;20.80;99.90;;;;;;4985962;28;20591;-63
2021/10/03 12:57:20;;;;;;;5.50;3.23;;;20.80;99.90;;;;;;4990908;28;20662;-64
2021/10/03 12:59:48;;;;;;;4.10;3.30;;;20.90;99.90;;;;;;4994757;28;20238;-63
2021/10/03 13:02:18;;;;;;;4.67;3.50;;;20.90;99.90;;;;;;4992901;28;20295;-63